SQ3KKR-13 Weather Reports


Display with metric or nautical units.
time (UTC)temp
F
wind
direction
speed
MPH
gust
MPH
rain 1hr
in
rain 24hr
in
rain mn
in
humidity
%
barometer
mb
20210728200129 65 45 0.0 1.0 0.00 0.00 0.00 75 1006.9
20210728195329 65 0 0.0 0.0 0.00 0.00 0.00 74 1006.9
20210728194529 66 45 0.0 1.0 0.00 0.00 0.00 73 1006.9
20210728193729 67 315 0.0 1.0 0.00 0.00 0.00 72 1006.9
20210728192929 68 315 0.0 2.0 0.00 0.00 0.00 70 1006.9
20210728192129 69 220 1.0 2.0 0.00 0.00 0.00 68 1006.8
20210728191329 70 238 2.0 4.0 0.00 0.00 0.00 64 1006.6
20210728190529 71 234 2.0 4.0 0.00 0.00 0.00 63 1006.4
20210728185729 71 240 2.0 3.0 0.00 0.00 0.00 62 1006.4
20210728184929 72 246 3.0 4.0 0.00 0.00 0.00 62 1006.3
20210728184129 72 227 3.0 4.0 0.00 0.00 0.00 62 1006.4
20210728183329 72 234 2.0 4.0 0.00 0.00 0.00 62 1006.2
20210728182529 72 238 3.0 4.0 0.00 0.00 0.00 58 1006.4
20210728181729 72 230 4.0 5.0 0.00 0.00 0.00 57 1006.2
20210728180929 73 200 3.0 5.0 0.00 0.00 0.00 57 1006.3
20210728180129 73 222 3.0 5.0 0.00 0.00 0.00 55 1006.2
20210728175330 73 248 4.0 6.0 0.00 0.00 0.00 54 1006.3
20210728174529 74 269 4.0 5.0 0.00 0.00 0.00 52 1006.3
20210728173729 74 245 4.0 5.0 0.00 0.00 0.00 52 1006.3
20210728172929 74 244 4.0 7.0 0.00 0.00 0.00 52 1006.3
20210728172129 74 239 4.0 6.0 0.00 0.00 0.00 52 1006.3
20210728171329 75 240 5.0 7.0 0.00 0.00 0.00 51 1006.3
20210728170529 75 250 6.0 9.0 0.00 0.00 0.00 51 1006.5
20210728165729 75 235 6.0 9.0 0.00 0.00 0.00 51 1006.4
20210728164929 76 248 6.0 8.0 0.00 0.00 0.00 51 1006.5
20210728164129 76 246 8.0 10.0 0.00 0.00 0.00 50 1006.5
20210728163329 76 247 5.0 11.0 0.00 0.00 0.00 50 1006.3
20210728162529 76 238 8.0 12.0 0.00 0.00 0.00 50 1006.4
20210728161729 76 263 8.0 11.0 0.00 0.00 0.00 51 1006.2
20210728160929 76 264 9.0 11.0 0.00 0.00 0.00 51 1006.2
20210728160129 77 250 7.0 9.0 0.00 0.00 0.00 51 1006.2
20210728155329 77 251 7.0 9.0 0.00 0.00 0.00 51 1006.2
20210728154529 77 261 8.0 9.0 0.00 0.00 0.00 51 1006.0
20210728153729 78 255 6.0 9.0 0.00 0.00 0.00 51 1006.1
20210728152929 78 261 8.0 11.0 0.00 0.00 0.00 50 1006.0
20210728152129 78 252 5.0 8.0 0.00 0.00 0.00 51 1006.1
20210728151329 79 266 5.0 8.0 0.00 0.00 0.00 51 1006.1
20210728150529 79 257 7.0 8.0 0.00 0.00 0.00 50 1006.1
20210728145729 80 250 7.0 9.0 0.00 0.00 0.00 50 1006.4
20210728144929 79 237 8.0 11.0 0.00 0.00 0.00 50 1006.5
20210728144129 79 251 9.0 11.0 0.00 0.00 0.00 48 1006.6
20210728143329 80 258 7.0 10.0 0.00 0.00 0.00 50 1006.4
20210728142529 80 262 6.0 8.0 0.00 0.00 0.00 50 1006.3
20210728141729 80 266 8.0 10.0 0.00 0.00 0.00 49 1006.4
20210728140929 80 252 10.0 11.0 0.00 0.00 0.00 50 1006.4
20210728140129 80 246 8.0 11.0 0.00 0.00 0.00 50 1006.6
20210728135329 80 233 8.0 11.0 0.00 0.00 0.00 48 1006.6
20210728134529 82 247 9.0 14.0 0.00 0.00 0.00 42 1006.5
20210728133729 83 246 9.0 14.0 0.00 0.00 0.00 41 1006.5
20210728132929 83 238 8.0 11.0 0.00 0.00 0.00 42 1006.6
20210728132129 81 236 6.0 10.0 0.00 0.00 0.00 48 1006.6
20210728131329 82 252 7.0 10.0 0.00 0.00 0.00 44 1006.8
20210728130529 82 237 6.0 9.0 0.00 0.00 0.00 45 1006.7
20210728125729 82 255 8.0 11.0 0.00 0.00 0.00 43 1006.8
20210728124929 83 256 8.0 9.0 0.00 0.00 0.00 43 1006.7
20210728124129 82 271 8.0 10.0 0.00 0.00 0.00 44 1006.6
20210728123329 82 256 6.0 8.0 0.00 0.00 0.00 44 1006.8
20210728122529 81 233 6.0 8.0 0.00 0.00 0.00 48 1006.9
20210728121729 81 228 6.0 8.0 0.00 0.00 0.00 47 1006.9
20210728120929 81 229 7.0 8.0 0.00 0.00 0.00 50 1006.9
20210728120129 80 228 6.0 8.0 0.00 0.00 0.00 51 1007.1
20210728115329 81 224 7.0 11.0 0.00 0.00 0.00 50 1007.0
20210728114529 82 243 6.0 11.0 0.00 0.00 0.00 45 1007.0
20210728113729 81 236 5.0 8.0 0.00 0.00 0.00 52 1006.9
20210728112929 80 243 5.0 7.0 0.00 0.00 0.00 54 1006.9
20210728112129 80 267 4.0 7.0 0.00 0.00 0.00 53 1006.8
20210728111329 79 229 5.0 6.0 0.00 0.00 0.00 56 1006.8
20210728110529 79 228 4.0 6.0 0.00 0.00 0.00 59 1006.9
20210728105729 77 241 4.0 5.0 0.00 0.00 0.00 57 1007.0
20210728104929 77 261 2.0 4.0 0.00 0.00 0.00 60 1006.8
20210728104129 76 187 1.0 2.0 0.00 0.00 0.00 63 1007.0
20210728103329 75 175 2.0 4.0 0.00 0.00 0.00 61 1006.8
20210728102529 75 235 2.0 4.0 0.00 0.00 0.00 61 1006.9
20210728101729 75 300 2.0 4.0 0.00 0.00 0.00 62 1007.1
20210728100929 74 112 3.0 4.0 0.00 0.00 0.00 61 1007.2
20210728100129 74 260 5.0 8.0 0.00 0.00 0.00 63 1007.0
20210728095329 75 272 6.0 8.0 0.00 0.00 0.00 63 1006.8
20210728094529 75 240 5.0 8.0 0.00 0.00 0.00 61 1006.9
20210728093729 76 248 3.0 5.0 0.00 0.00 0.00 57 1006.9
20210728092929 77 255 2.0 4.0 0.00 0.00 0.00 55 1006.9
20210728092129 78 265 4.0 8.0 0.00 0.00 0.00 54 1006.8
20210728091329 79 252 3.0 8.0 0.00 0.00 0.00 53 1006.8
20210728090529 80 228 1.0 2.0 0.00 0.00 0.00 58 1006.6
20210728085729 80 216 3.0 4.0 0.00 0.00 0.00 55 1006.5
20210728084929 81 242 4.0 5.0 0.00 0.00 0.00 52 1006.8
20210728084129 80 238 4.0 4.0 0.00 0.00 0.00 54 1006.7
20210728083329 79 243 4.0 7.0 0.00 0.00 0.00 55 1006.6
20210728082529 75 221 4.0 6.0 0.00 0.00 0.00 60 1006.9
20210728081729 75 229 5.0 6.0 0.00 0.00 0.00 60 1007.1
20210728080929 76 229 5.0 5.0 0.00 0.00 0.00 60 1007.0
20210728080129 75 252 4.0 5.0 0.00 0.00 0.00 61 1007.2
20210728075329 74 245 2.0 4.0 0.00 0.00 0.00 62 1006.9
20210728074529 73 232 2.0 4.0 0.00 0.00 0.00 64 1006.8
20210728073729 72 247 1.0 3.0 0.00 0.00 0.00 71 1007.0
20210728072929 72 131 1.0 2.0 0.00 0.00 0.00 73 1006.9
20210728072129 70 103 0.0 2.0 0.00 0.00 0.00 76 1006.9
20210728071329 69 0 0.0 0.0 0.00 0.00 0.00 78 1007.1
20210728070529 69 0 0.0 0.0 0.00 0.00 0.00 77 1006.8
20210728065729 69 225 0.0 1.0 0.00 0.00 0.00 76 1007.1
20210728064929 69 225 0.0 1.0 0.00 0.00 0.00 77 1006.8
20210728064129 69 180 0.0 1.0 0.00 0.00 0.00 77 1006.7
20210728063329 69 98 0.0 2.0 0.00 0.00 0.00 78 1006.8
20210728062529 69 88 1.0 2.0 0.00 0.00 0.00 78 1006.7
20210728061729 68 102 1.0 2.0 0.00 0.00 0.00 77 1006.9
20210728060929 69 106 1.0 2.0 0.00 0.00 0.00 79 1006.7
20210728060129 68 103 1.0 2.0 0.00 0.00 0.00 80 1006.8
20210728055329 67 83 1.0 2.0 0.00 0.00 0.00 82 1006.7
20210728054529 66 94 1.0 3.0 0.00 0.00 0.00 82 1006.9
20210728053729 65 91 1.0 3.0 0.00 0.00 0.00 82 1006.9
20210728052929 65 98 1.0 2.0 0.00 0.00 0.00 82 1006.7
20210728052129 65 91 2.0 2.0 0.00 0.00 0.00 85 1006.8
20210728051329 65 90 1.0 2.0 0.00 0.00 0.00 91 1006.8
20210728050529 64 90 0.0 1.0 0.00 0.00 0.00 93 1006.8
20210728045729 63 135 0.0 1.0 0.00 0.00 0.00 97 1006.8
20210728044929 63 0 0.0 0.0 0.00 0.00 0.00 100 1006.6
20210728044129 62 205 0.0 1.0 0.00 0.00 0.00 100 1006.9
20210728043329 62 171 0.0 1.0 0.00 0.00 0.00 99 1006.9
20210728042529 62 0 0.0 0.0 0.00 0.00 0.00 100 1006.9
20210728041729 61 90 0.0 1.0 0.00 0.00 0.00 100 1007.1
20210728040929 60 90 0.0 1.0 0.00 0.00 0.00 97 1007.2
20210728040129 60 0 0.0 0.0 0.00 0.00 0.00 95 1007.1
20210728035329 59 0 0.0 0.0 0.00 0.00 0.00 95 1007.2
20210728034529 59 0 0.0 0.0 0.00 0.00 0.00 95 1007.3
20210728033729 59 0 0.0 0.0 0.00 0.00 0.00 94 1007.2
20210728032929 59 0 0.0 0.0 0.00 0.00 0.00 94 1007.2
20210728032129 59 0 0.0 0.0 0.00 0.00 0.00 95 1007.2
20210728031329 59 0 0.0 0.0 0.00 0.00 0.00 95 1007.0
20210728030529 59 0 0.0 0.0 0.00 0.00 0.00 94 1007.1
20210728025729 60 0 0.0 0.0 0.00 0.00 0.00 95 1007.0
20210728024929 60 0 0.0 0.0 0.00 0.00 0.00 95 1007.1
20210728024129 60 0 0.0 0.0 0.00 0.00 0.00 94 1007.0
20210728023329 60 0 0.0 0.0 0.00 0.00 0.00 94 1007.1
20210728022529 60 0 0.0 0.0 0.00 0.00 0.00 94 1007.1
20210728021729 60 0 0.0 0.0 0.00 0.00 0.00 94 1006.9
20210728020929 60 0 0.0 0.0 0.00 0.00 0.00 94 1007.1
20210728020129 59 0 0.0 0.0 0.00 0.00 0.00 93 1007.1
20210728015329 59 0 0.0 0.0 0.00 0.00 0.00 93 1007.1
20210728014529 59 0 0.0 0.0 0.00 0.00 0.00 92 1007.1
20210728013729 60 0 0.0 0.0 0.00 0.00 0.00 92 1007.2
20210728012929 60 0 0.0 0.0 0.00 0.00 0.00 92 1006.9
20210728012129 60 0 0.0 0.0 0.00 0.00 0.00 92 1007.2
20210728011329 60 0 0.0 0.0 0.00 0.00 0.00 93 1007.2
20210728010529 60 0 0.0 0.0 0.00 0.00 0.00 92 1007.1
20210728005729 60 0 0.0 0.0 0.00 0.00 0.00 92 1007.2
20210728004929 60 0 0.0 0.0 0.00 0.00 0.00 92 1007.4
20210728004129 61 0 0.0 0.0 0.00 0.00 0.00 92 1007.2
20210728003329 61 0 0.0 0.0 0.00 0.00 0.00 92 1007.3
20210728002529 60 0 0.0 0.0 0.00 0.00 0.00 91 1007.3
20210728001729 60 0 0.0 0.0 0.00 0.00 0.00 91 1007.3
20210728000929 60 0 0.0 0.0 0.00 0.00 0.00 91 1007.4
20210728000129 61 0 0.0 0.0 0.00 0.00 0.00 91 1007.4
20210727235329 61 0 0.0 0.0 0.00 0.00 0.00 90 1007.4
20210727234529 60 0 0.0 0.0 0.00 0.00 0.00 90 1007.5
20210727233729 61 0 0.0 0.0 0.00 0.00 0.00 90 1007.7
20210727232929 61 0 0.0 0.0 0.00 0.01 0.00 90 1007.6
20210727232129 61 0 0.0 0.0 0.00 0.01 0.00 89 1007.9
20210727231329 61 0 0.0 0.0 0.00 0.01 0.00 89 1007.9
20210727230529 62 0 0.0 0.0 0.00 0.01 0.00 89 1007.9
20210727225729 62 0 0.0 0.0 0.00 0.01 0.00 88 1007.8
20210727224929 62 0 0.0 0.0 0.00 0.01 0.00 88 1007.9
20210727224129 62 0 0.0 0.0 0.00 0.01 0.00 88 1007.9
20210727223329 62 0 0.0 0.0 0.00 0.01 0.00 87 1007.8
20210727222529 63 0 0.0 0.0 0.00 0.01 0.00 87 1008.1
20210727221729 63 0 0.0 0.0 0.00 0.01 0.00 86 1008.3
20210727220929 63 0 0.0 0.0 0.00 0.01 0.00 85 1008.3
20210727220129 64 0 0.0 0.0 0.00 0.01 0.00 82 1008.3
20210727215329 64 0 0.0 0.0 0.00 0.01 0.01 81 1008.2
20210727214529 64 0 0.0 0.0 0.00 0.01 0.01 81 1008.2
20210727213729 65 0 0.0 0.0 0.00 0.01 0.01 81 1008.3
20210727212929 65 0 0.0 0.0 0.00 0.01 0.01 81 1008.1
20210727212129 65 0 0.0 0.0 0.00 0.01 0.01 80 1008.1
20210727211329 65 0 0.0 0.0 0.00 0.01 0.01 80 1008.0
20210727210529 66 0 0.0 0.0 0.00 0.01 0.01 79 1008.0
20210727205729 66 0 0.0 0.0 0.00 0.01 0.01 78 1008.0
20210727204929 66 0 0.0 0.0 0.00 0.01 0.01 76 1008.1
20210727204129 67 0 0.0 0.0 0.00 0.01 0.01 76 1007.9
20210727203329 67 0 0.0 0.0 0.00 0.01 0.01 75 1007.8
20210727202529 67 0 0.0 0.0 0.00 0.02 0.01 74 1007.8
20210727201729 68 0 0.0 0.0 0.00 0.02 0.01 73 1007.5
20210727200929 69 45 0.0 1.0 0.00 0.02 0.01 72 1007.5